sensor_id;sensor_type;location;lat;lon;timestamp;pressure;altitude;pressure_sealevel;temperature;humidity
76126;BME280;65174;48.138;21.002;2023-08-08T00:01:42;99122.00;;;14.85;89.11
76126;BME280;65174;48.138;21.002;2023-08-08T00:04:44;99134.41;;;14.42;91.73
76126;BME280;65174;48.138;21.002;2023-08-08T00:07:46;99138.84;;;14.30;92.79
76126;BME280;65174;48.138;21.002;2023-08-08T00:10:48;99134.22;;;14.13;94.75
76126;BME280;65174;48.138;21.002;2023-08-08T00:13:50;99135.56;;;14.07;95.29
76126;BME280;65174;48.138;21.002;2023-08-08T00:16:52;99136.16;;;14.20;94.88
76126;BME280;65174;48.138;21.002;2023-08-08T00:19:54;99138.56;;;14.12;95.61
76126;BME280;65174;48.138;21.002;2023-08-08T00:22:56;99139.91;;;14.07;95.98
76126;BME280;65174;48.138;21.002;2023-08-08T00:25:58;99136.34;;;14.08;96.20
76126;BME280;65174;48.138;21.002;2023-08-08T00:29:00;99145.44;;;14.34;95.36
76126;BME280;65174;48.138;21.002;2023-08-08T00:32:02;99138.50;;;14.44;94.34
76126;BME280;65174;48.138;21.002;2023-08-08T00:35:05;99132.50;;;14.44;94.31
76126;BME280;65174;48.138;21.002;2023-08-08T00:38:07;99139.34;;;14.45;94.39
76126;BME280;65174;48.138;21.002;2023-08-08T00:41:08;99137.69;;;14.44;94.29
76126;BME280;65174;48.138;21.002;2023-08-08T00:44:10;99128.44;;;14.51;94.48
76126;BME280;65174;48.138;21.002;2023-08-08T00:47:12;99131.59;;;14.54;94.36
76126;BME280;65174;48.138;21.002;2023-08-08T00:50:15;99133.13;;;14.66;93.83
76126;BME280;65174;48.138;21.002;2023-08-08T00:53:18;99139.72;;;14.70;93.63
76126;BME280;65174;48.138;21.002;2023-08-08T00:56:21;99146.00;;;14.68;93.32
76126;BME280;65174;48.138;21.002;2023-08-08T00:59:23;99149.28;;;14.70;93.36
76126;BME280;65174;48.138;21.002;2023-08-08T01:02:25;99147.63;;;14.69;93.13
76126;BME280;65174;48.138;21.002;2023-08-08T01:05:32;99150.38;;;14.77;93.03
76126;BME280;65174;48.138;21.002;2023-08-08T01:08:43;99152.59;;;14.81;92.67
76126;BME280;65174;48.138;21.002;2023-08-08T01:11:47;99151.13;;;14.88;92.24
76126;BME280;65174;48.138;21.002;2023-08-08T01:14:51;99153.16;;;14.85;91.89
76126;BME280;65174;48.138;21.002;2023-08-08T01:17:54;99153.16;;;14.85;91.88
76126;BME280;65174;48.138;21.002;2023-08-08T01:20:57;99150.44;;;14.86;91.44
76126;BME280;65174;48.138;21.002;2023-08-08T01:27:20;99160.53;;;14.89;90.96
76126;BME280;65174;48.138;21.002;2023-08-08T01:30:22;99158.81;;;14.99;89.17
76126;BME280;65174;48.138;21.002;2023-08-08T01:33:24;99163.34;;;15.07;89.05
76126;BME280;65174;48.138;21.002;2023-08-08T01:36:33;99164.47;;;15.14;87.38
76126;BME280;65174;48.138;21.002;2023-08-08T01:39:37;99164.22;;;15.27;86.15
76126;BME280;65174;48.138;21.002;2023-08-08T01:42:41;99157.91;;;15.10;86.76
76126;BME280;65174;48.138;21.002;2023-08-08T01:45:44;99163.09;;;15.20;87.01
76126;BME280;65174;48.138;21.002;2023-08-08T01:48:46;99162.16;;;15.21;87.16
76126;BME280;65174;48.138;21.002;2023-08-08T01:51:48;99169.13;;;15.20;87.16
76126;BME280;65174;48.138;21.002;2023-08-08T01:54:52;99169.97;;;15.21;87.20
76126;BME280;65174;48.138;21.002;2023-08-08T01:57:55;99173.50;;;15.20;87.08
76126;BME280;65174;48.138;21.002;2023-08-08T02:00:57;99177.88;;;15.19;87.70
76126;BME280;65174;48.138;21.002;2023-08-08T02:03:59;99182.22;;;15.19;87.54
76126;BME280;65174;48.138;21.002;2023-08-08T02:07:01;99183.06;;;15.19;88.27
76126;BME280;65174;48.138;21.002;2023-08-08T02:10:05;99178.97;;;15.26;88.64
76126;BME280;65174;48.138;21.002;2023-08-08T02:13:07;99172.97;;;15.26;89.06
76126;BME280;65174;48.138;21.002;2023-08-08T02:16:09;99180.91;;;15.24;89.64
76126;BME280;65174;48.138;21.002;2023-08-08T02:19:11;99178.16;;;15.16;89.93
76126;BME280;65174;48.138;21.002;2023-08-08T02:22:12;99180.16;;;15.12;90.03
76126;BME280;65174;48.138;21.002;2023-08-08T02:25:14;99185.25;;;15.14;90.75
76126;BME280;65174;48.138;21.002;2023-08-08T02:28:16;99196.34;;;15.16;90.86
76126;BME280;65174;48.138;21.002;2023-08-08T02:31:18;99196.59;;;15.13;90.40
76126;BME280;65174;48.138;21.002;2023-08-08T02:34:24;99194.53;;;15.17;89.55
76126;BME280;65174;48.138;21.002;2023-08-08T02:37:26;99192.47;;;15.10;90.30
76126;BME280;65174;48.138;21.002;2023-08-08T02:40:28;99185.34;;;15.03;90.62
76126;BME280;65174;48.138;21.002;2023-08-08T02:43:30;99189.03;;;15.00;91.36
76126;BME280;65174;48.138;21.002;2023-08-08T02:46:32;99199.69;;;14.97;90.59
76126;BME280;65174;48.138;21.002;2023-08-08T02:49:34;99190.84;;;15.09;88.72
76126;BME280;65174;48.138;21.002;2023-08-08T02:52:37;99185.50;;;15.11;88.92
76126;BME280;65174;48.138;21.002;2023-08-08T02:55:38;99196.44;;;15.14;88.22
76126;BME280;65174;48.138;21.002;2023-08-08T02:58:41;99192.63;;;15.19;88.74
76126;BME280;65174;48.138;21.002;2023-08-08T03:01:43;99198.78;;;15.18;87.92
76126;BME280;65174;48.138;21.002;2023-08-08T03:04:50;99200.16;;;15.12;87.06
76126;BME280;65174;48.138;21.002;2023-08-08T03:07:53;99204.91;;;15.07;87.19
76126;BME280;65174;48.138;21.002;2023-08-08T03:10:57;99198.06;;;15.06;87.18
76126;BME280;65174;48.138;21.002;2023-08-08T03:13:59;99197.66;;;15.10;87.57
76126;BME280;65174;48.138;21.002;2023-08-08T03:17:01;99196.03;;;15.09;87.27
76126;BME280;65174;48.138;21.002;2023-08-08T03:20:03;99196.69;;;15.02;87.06
76126;BME280;65174;48.138;21.002;2023-08-08T03:23:08;99195.88;;;15.01;87.04
76126;BME280;65174;48.138;21.002;2023-08-08T03:26:11;99214.84;;;15.02;88.00
76126;BME280;65174;48.138;21.002;2023-08-08T03:29:13;99207.50;;;15.07;87.71
76126;BME280;65174;48.138;21.002;2023-08-08T03:32:19;99215.31;;;15.17;87.33
76126;BME280;65174;48.138;21.002;2023-08-08T03:35:21;99224.22;;;15.14;88.02
76126;BME280;65174;48.138;21.002;2023-08-08T03:38:23;99228.59;;;15.13;87.67
76126;BME280;65174;48.138;21.002;2023-08-08T03:41:25;99230.91;;;15.17;87.65
76126;BME280;65174;48.138;21.002;2023-08-08T03:44:27;99229.44;;;15.24;87.81
76126;BME280;65174;48.138;21.002;2023-08-08T03:47:30;99233.25;;;15.20;88.97
76126;BME280;65174;48.138;21.002;2023-08-08T03:50:32;99230.81;;;15.18;89.58
76126;BME280;65174;48.138;21.002;2023-08-08T03:53:34;99243.75;;;15.08;91.97
76126;BME280;65174;48.138;21.002;2023-08-08T03:56:36;99247.72;;;15.12;93.48
76126;BME280;65174;48.138;21.002;2023-08-08T03:59:38;99256.50;;;15.21;93.80
76126;BME280;65174;48.138;21.002;2023-08-08T04:02:40;99263.56;;;14.79;94.94
76126;BME280;65174;48.138;21.002;2023-08-08T04:05:46;99258.84;;;14.64;94.29
76126;BME280;65174;48.138;21.002;2023-08-08T04:08:49;99262.75;;;14.79;95.30
76126;BME280;65174;48.138;21.002;2023-08-08T04:11:51;99270.66;;;14.77;96.16
76126;BME280;65174;48.138;21.002;2023-08-08T04:14:53;99266.22;;;14.89;96.04
76126;BME280;65174;48.138;21.002;2023-08-08T04:17:55;99284.06;;;15.03;95.84
76126;BME280;65174;48.138;21.002;2023-08-08T04:20:57;99277.97;;;15.13;95.61
76126;BME280;65174;48.138;21.002;2023-08-08T04:23:59;99282.28;;;15.03;94.87
76126;BME280;65174;48.138;21.002;2023-08-08T04:27:01;99276.81;;;15.06;93.32
76126;BME280;65174;48.138;21.002;2023-08-08T04:30:03;99272.53;;;15.26;92.63
76126;BME280;65174;48.138;21.002;2023-08-08T04:33:06;99278.13;;;15.22;91.30
76126;BME280;65174;48.138;21.002;2023-08-08T04:36:08;99273.72;;;15.43;91.22
76126;BME280;65174;48.138;21.002;2023-08-08T04:39:10;99276.97;;;15.35;89.29
76126;BME280;65174;48.138;21.002;2023-08-08T04:42:12;99286.19;;;15.49;91.00
76126;BME280;65174;48.138;21.002;2023-08-08T04:45:14;99281.47;;;15.73;87.26
76126;BME280;65174;48.138;21.002;2023-08-08T04:48:16;99284.59;;;15.86;85.36
76126;BME280;65174;48.138;21.002;2023-08-08T04:51:19;99294.72;;;15.70;87.49
76126;BME280;65174;48.138;21.002;2023-08-08T04:54:21;99293.34;;;15.66;88.02
76126;BME280;65174;48.138;21.002;2023-08-08T04:57:23;99300.31;;;15.56;87.90
76126;BME280;65174;48.138;21.002;2023-08-08T05:00:26;99306.19;;;15.58;88.76
76126;BME280;65174;48.138;21.002;2023-08-08T05:03:28;99310.00;;;15.54;87.53
76126;BME280;65174;48.138;21.002;2023-08-08T05:06:30;99317.81;;;15.54;88.40
76126;BME280;65174;48.138;21.002;2023-08-08T05:09:32;99326.31;;;15.56;88.71
76126;BME280;65174;48.138;21.002;2023-08-08T05:12:34;99326.03;;;15.59;88.07
76126;BME280;65174;48.138;21.002;2023-08-08T05:15:36;99328.53;;;15.70;87.51
76126;BME280;65174;48.138;21.002;2023-08-08T05:18:39;99334.97;;;15.75;86.80
76126;BME280;65174;48.138;21.002;2023-08-08T05:21:40;99342.50;;;15.39;88.97
76126;BME280;65174;48.138;21.002;2023-08-08T05:24:43;99347.63;;;15.50;88.16
76126;BME280;65174;48.138;21.002;2023-08-08T05:27:45;99344.44;;;15.76;86.36
76126;BME280;65174;48.138;21.002;2023-08-08T05:30:47;99360.56;;;15.70;87.54
76126;BME280;65174;48.138;21.002;2023-08-08T05:33:49;99357.09;;;16.10;85.25
76126;BME280;65174;48.138;21.002;2023-08-08T05:36:51;99357.94;;;16.29;83.18
76126;BME280;65174;48.138;21.002;2023-08-08T05:40:13;99370.22;;;15.99;86.33
76126;BME280;65174;48.138;21.002;2023-08-08T05:43:17;99368.03;;;16.13;83.31
76126;BME280;65174;48.138;21.002;2023-08-08T05:46:20;99374.13;;;16.23;85.36
76126;BME280;65174;48.138;21.002;2023-08-08T05:49:22;99373.09;;;15.96;85.90
76126;BME280;65174;48.138;21.002;2023-08-08T05:52:24;99374.50;;;16.19;82.66
76126;BME280;65174;48.138;21.002;2023-08-08T05:55:26;99384.75;;;16.01;84.06
76126;BME280;65174;48.138;21.002;2023-08-08T05:58:28;99391.06;;;16.18;84.38
76126;BME280;65174;48.138;21.002;2023-08-08T06:01:31;99392.59;;;16.20;82.13
76126;BME280;65174;48.138;21.002;2023-08-08T06:04:33;99401.19;;;16.02;84.57
76126;BME280;65174;48.138;21.002;2023-08-08T06:07:35;99399.84;;;16.17;85.13
76126;BME280;65174;48.138;21.002;2023-08-08T06:10:37;99403.53;;;16.14;84.75
76126;BME280;65174;48.138;21.002;2023-08-08T06:13:39;99406.28;;;16.22;84.91
76126;BME280;65174;48.138;21.002;2023-08-08T06:16:42;99410.00;;;16.48;85.21
76126;BME280;65174;48.138;21.002;2023-08-08T06:19:44;99400.56;;;16.38;84.21
76126;BME280;65174;48.138;21.002;2023-08-08T06:22:46;99394.31;;;16.69;82.93
76126;BME280;65174;48.138;21.002;2023-08-08T06:25:49;99390.59;;;16.72;83.36
76126;BME280;65174;48.138;21.002;2023-08-08T06:28:51;99402.91;;;17.08;82.10
76126;BME280;65174;48.138;21.002;2023-08-08T06:31:55;99402.84;;;17.27;78.23
76126;BME280;65174;48.138;21.002;2023-08-08T06:34:58;99406.47;;;17.07;80.27
76126;BME280;65174;48.138;21.002;2023-08-08T06:38:00;99394.00;;;17.47;76.88
76126;BME280;65174;48.138;21.002;2023-08-08T06:41:03;99397.72;;;17.54;76.92
76126;BME280;65174;48.138;21.002;2023-08-08T06:44:07;99400.09;;;17.38;76.56
76126;BME280;65174;48.138;21.002;2023-08-08T06:47:10;99403.91;;;17.43;76.79
76126;BME280;65174;48.138;21.002;2023-08-08T06:50:12;99403.56;;;17.75;75.28
76126;BME280;65174;48.138;21.002;2023-08-08T06:53:14;99402.88;;;18.00;72.68
76126;BME280;65174;48.138;21.002;2023-08-08T06:56:17;99411.34;;;18.30;72.50
76126;BME280;65174;48.138;21.002;2023-08-08T06:59:19;99409.09;;;18.17;71.56
76126;BME280;65174;48.138;21.002;2023-08-08T07:02:21;99418.09;;;18.05;71.28
76126;BME280;65174;48.138;21.002;2023-08-08T07:05:23;99411.50;;;18.28;71.56
76126;BME280;65174;48.138;21.002;2023-08-08T07:08:25;99416.94;;;18.44;69.88
76126;BME280;65174;48.138;21.002;2023-08-08T07:11:27;99422.50;;;18.04;70.72
76126;BME280;65174;48.138;21.002;2023-08-08T07:14:30;99422.00;;;18.18;69.81
76126;BME280;65174;48.138;21.002;2023-08-08T07:17:32;99419.19;;;18.30;71.52
76126;BME280;65174;48.138;21.002;2023-08-08T07:20:34;99416.34;;;18.23;69.96
76126;BME280;65174;48.138;21.002;2023-08-08T07:23:36;99423.44;;;18.58;69.28
76126;BME280;65174;48.138;21.002;2023-08-08T07:26:37;99427.69;;;18.76;70.00
76126;BME280;65174;48.138;21.002;2023-08-08T07:30:00;99430.28;;;18.59;69.36
76126;BME280;65174;48.138;21.002;2023-08-08T07:33:22;99441.19;;;18.89;68.76
76126;BME280;65174;48.138;21.002;2023-08-08T07:36:45;99435.66;;;18.75;68.25
76126;BME280;65174;48.138;21.002;2023-08-08T07:40:20;99438.28;;;19.10;66.45
76126;BME280;65174;48.138;21.002;2023-08-08T07:43:42;99442.78;;;19.26;66.32
76126;BME280;65174;48.138;21.002;2023-08-08T07:47:04;99434.38;;;19.14;65.52
76126;BME280;65174;48.138;21.002;2023-08-08T07:50:26;99434.88;;;19.18;64.55
76126;BME280;65174;48.138;21.002;2023-08-08T07:53:48;99433.94;;;19.44;64.87
76126;BME280;65174;48.138;21.002;2023-08-08T07:57:10;99424.34;;;19.53;65.09
76126;BME280;65174;48.138;21.002;2023-08-08T08:00:32;99428.66;;;19.36;65.02
76126;BME280;65174;48.138;21.002;2023-08-08T08:03:54;99429.78;;;19.59;64.54
76126;BME280;65174;48.138;21.002;2023-08-08T08:07:16;99434.09;;;19.25;64.78
76126;BME280;65174;48.138;21.002;2023-08-08T08:10:38;99434.94;;;19.43;66.05
76126;BME280;65174;48.138;21.002;2023-08-08T08:14:00;99427.66;;;19.63;64.25
76126;BME280;65174;48.138;21.002;2023-08-08T08:17:22;99427.28;;;19.32;67.29
76126;BME280;65174;48.138;21.002;2023-08-08T08:20:44;99426.31;;;19.85;63.48
76126;BME280;65174;48.138;21.002;2023-08-08T08:24:06;99432.78;;;20.06;64.25
76126;BME280;65174;48.138;21.002;2023-08-08T08:27:28;99427.81;;;19.87;64.37
76126;BME280;65174;48.138;21.002;2023-08-08T08:30:50;99427.16;;;18.73;67.16
76126;BME280;65174;48.138;21.002;2023-08-08T08:34:12;99439.94;;;18.76;68.33
76126;BME280;65174;48.138;21.002;2023-08-08T08:37:34;99426.88;;;19.19;65.58
76126;BME280;65174;48.138;21.002;2023-08-08T08:40:57;99433.03;;;19.53;67.83
76126;BME280;65174;48.138;21.002;2023-08-08T08:44:19;99440.25;;;19.34;65.56
76126;BME280;65174;48.138;21.002;2023-08-08T08:47:46;99437.94;;;19.13;66.26
76126;BME280;65174;48.138;21.002;2023-08-08T08:51:08;99431.03;;;19.30;64.97
76126;BME280;65174;48.138;21.002;2023-08-08T08:54:10;99431.94;;;19.64;66.19
76126;BME280;65174;48.138;21.002;2023-08-08T08:57:13;99429.97;;;20.00;62.71
76126;BME280;65174;48.138;21.002;2023-08-08T09:00:15;99429.19;;;20.07;62.97
76126;BME280;65174;48.138;21.002;2023-08-08T09:03:20;99425.25;;;20.03;62.44
76126;BME280;65174;48.138;21.002;2023-08-08T09:06:23;99435.50;;;19.89;65.48
76126;BME280;65174;48.138;21.002;2023-08-08T09:09:25;99427.47;;;19.56;63.85
76126;BME280;65174;48.138;21.002;2023-08-08T09:12:27;99429.31;;;19.98;62.80
76126;BME280;65174;48.138;21.002;2023-08-08T09:15:33;99431.06;;;19.81;63.55
76126;BME280;65174;48.138;21.002;2023-08-08T09:18:35;99426.00;;;19.88;60.85
76126;BME280;65174;48.138;21.002;2023-08-08T09:21:40;99435.84;;;20.27;61.32
76126;BME280;65174;48.138;21.002;2023-08-08T09:24:42;99426.16;;;20.28;61.20
76126;BME280;65174;48.138;21.002;2023-08-08T09:27:44;99426.75;;;20.88;59.46
76126;BME280;65174;48.138;21.002;2023-08-08T09:30:46;99428.91;;;20.92;60.13
76126;BME280;65174;48.138;21.002;2023-08-08T09:33:48;99428.56;;;20.79;59.49
76126;BME280;65174;48.138;21.002;2023-08-08T09:36:53;99432.31;;;20.69;59.68
76126;BME280;65174;48.138;21.002;2023-08-08T09:39:58;99432.44;;;20.51;60.73
76126;BME280;65174;48.138;21.002;2023-08-08T09:43:01;99430.81;;;20.42;59.30
76126;BME280;65174;48.138;21.002;2023-08-08T09:46:03;99435.75;;;20.19;62.42
76126;BME280;65174;48.138;21.002;2023-08-08T09:49:06;99436.84;;;20.42;61.59
76126;BME280;65174;48.138;21.002;2023-08-08T09:52:08;99431.84;;;20.81;59.78
76126;BME280;65174;48.138;21.002;2023-08-08T09:55:11;99435.47;;;21.12;58.07
76126;BME280;65174;48.138;21.002;2023-08-08T09:58:13;99434.44;;;20.89;56.87
76126;BME280;65174;48.138;21.002;2023-08-08T10:01:16;99421.22;;;21.07;57.40
76126;BME280;65174;48.138;21.002;2023-08-08T10:04:18;99422.50;;;21.19;56.66
76126;BME280;65174;48.138;21.002;2023-08-08T10:07:20;99424.66;;;21.15;56.62
76126;BME280;65174;48.138;21.002;2023-08-08T10:10:22;99433.13;;;21.42;56.92
76126;BME280;65174;48.138;21.002;2023-08-08T10:13:26;99429.13;;;21.62;58.54
76126;BME280;65174;48.138;21.002;2023-08-08T10:16:31;99424.84;;;21.69;55.97
76126;BME280;65174;48.138;21.002;2023-08-08T10:19:34;99430.34;;;21.35;55.51
76126;BME280;65174;48.138;21.002;2023-08-08T10:22:45;99428.38;;;20.89;57.76
76126;BME280;65174;48.138;21.002;2023-08-08T10:25:50;99424.94;;;20.80;59.37
76126;BME280;65174;48.138;21.002;2023-08-08T10:28:56;99421.16;;;20.99;56.37
76126;BME280;65174;48.138;21.002;2023-08-08T10:32:06;99422.66;;;20.85;58.01
76126;BME280;65174;48.138;21.002;2023-08-08T10:35:09;99414.97;;;21.08;58.70
76126;BME280;65174;48.138;21.002;2023-08-08T10:38:13;99413.81;;;21.10;58.28
76126;BME280;65174;48.138;21.002;2023-08-08T10:41:20;99421.50;;;20.88;55.48
76126;BME280;65174;48.138;21.002;2023-08-08T10:44:24;99423.66;;;20.92;57.67
76126;BME280;65174;48.138;21.002;2023-08-08T10:47:31;99412.63;;;20.97;59.50
76126;BME280;65174;48.138;21.002;2023-08-08T10:50:40;99421.38;;;21.13;57.33
76126;BME280;65174;48.138;21.002;2023-08-08T10:53:43;99415.97;;;21.07;56.86
76126;BME280;65174;48.138;21.002;2023-08-08T10:56:49;99414.47;;;21.20;56.45
76126;BME280;65174;48.138;21.002;2023-08-08T10:59:52;99412.19;;;21.17;57.76
76126;BME280;65174;48.138;21.002;2023-08-08T11:02:54;99410.38;;;21.18;57.27
76126;BME280;65174;48.138;21.002;2023-08-08T11:05:57;99416.25;;;21.20;57.40
76126;BME280;65174;48.138;21.002;2023-08-08T11:09:01;99406.91;;;20.93;55.37
76126;BME280;65174;48.138;21.002;2023-08-08T11:12:03;99410.22;;;21.03;54.59
76126;BME280;65174;48.138;21.002;2023-08-08T11:15:05;99404.47;;;21.00;55.39
76126;BME280;65174;48.138;21.002;2023-08-08T11:18:07;99402.34;;;20.63;56.38
76126;BME280;65174;48.138;21.002;2023-08-08T11:21:11;99404.97;;;20.79;56.15
76126;BME280;65174;48.138;21.002;2023-08-08T11:24:19;99393.31;;;20.82;55.63
76126;BME280;65174;48.138;21.002;2023-08-08T11:27:23;99404.78;;;20.73;56.47
76126;BME280;65174;48.138;21.002;2023-08-08T11:30:32;99410.84;;;20.73;56.93
76126;BME280;65174;48.138;21.002;2023-08-08T11:33:35;99405.94;;;20.70;56.12
76126;BME280;65174;48.138;21.002;2023-08-08T11:36:37;99408.06;;;20.58;55.68
76126;BME280;65174;48.138;21.002;2023-08-08T11:39:40;99393.31;;;20.82;57.84
76126;BME280;65174;48.138;21.002;2023-08-08T11:42:42;99396.44;;;20.93;57.73
76126;BME280;65174;48.138;21.002;2023-08-08T11:45:48;99400.34;;;20.97;56.81
76126;BME280;65174;48.138;21.002;2023-08-08T11:48:51;99393.69;;;21.03;55.78
76126;BME280;65174;48.138;21.002;2023-08-08T11:51:54;99393.50;;;21.04;56.03
76126;BME280;65174;48.138;21.002;2023-08-08T11:55:01;99397.72;;;20.97;58.29
76126;BME280;65174;48.138;21.002;2023-08-08T11:58:03;99395.78;;;20.67;56.56
76126;BME280;65174;48.138;21.002;2023-08-08T12:01:07;99393.00;;;20.77;55.98
76126;BME280;65174;48.138;21.002;2023-08-08T12:04:10;99395.44;;;20.78;55.08
76126;BME280;65174;48.138;21.002;2023-08-08T12:07:12;99393.31;;;20.74;57.37
76126;BME280;65174;48.138;21.002;2023-08-08T12:10:17;99395.13;;;20.65;58.56
76126;BME280;65174;48.138;21.002;2023-08-08T12:13:23;99390.38;;;20.69;59.00
76126;BME280;65174;48.138;21.002;2023-08-08T12:16:28;99400.69;;;20.70;56.87
76126;BME280;65174;48.138;21.002;2023-08-08T12:19:35;99395.13;;;20.89;57.21
76126;BME280;65174;48.138;21.002;2023-08-08T12:22:37;99395.31;;;21.04;56.04
76126;BME280;65174;48.138;21.002;2023-08-08T12:25:39;99389.28;;;21.58;55.21
76126;BME280;65174;48.138;21.002;2023-08-08T12:28:41;99379.72;;;21.73;50.71
76126;BME280;65174;48.138;21.002;2023-08-08T12:31:43;99386.84;;;22.03;52.90
76126;BME280;65174;48.138;21.002;2023-08-08T12:34:45;99373.72;;;22.03;52.37
76126;BME280;65174;48.138;21.002;2023-08-08T12:37:47;99373.75;;;22.26;51.97
76126;BME280;65174;48.138;21.002;2023-08-08T12:40:49;99376.19;;;22.50;48.87
76126;BME280;65174;48.138;21.002;2023-08-08T12:43:52;99372.41;;;22.30;49.24
76126;BME280;65174;48.138;21.002;2023-08-08T12:46:54;99369.78;;;22.75;47.87
76126;BME280;65174;48.138;21.002;2023-08-08T12:49:56;99375.59;;;22.85;44.30
76126;BME280;65174;48.138;21.002;2023-08-08T12:52:58;99375.78;;;22.84;40.44
76126;BME280;65174;48.138;21.002;2023-08-08T12:56:00;99380.44;;;22.97;40.29
76126;BME280;65174;48.138;21.002;2023-08-08T12:59:02;99374.56;;;22.95;36.67
76126;BME280;65174;48.138;21.002;2023-08-08T13:02:04;99375.50;;;23.16;40.19
76126;BME280;65174;48.138;21.002;2023-08-08T13:05:06;99364.16;;;23.16;41.58
76126;BME280;65174;48.138;21.002;2023-08-08T13:08:09;99375.03;;;23.35;40.57
76126;BME280;65174;48.138;21.002;2023-08-08T13:11:11;99367.25;;;23.19;37.65
76126;BME280;65174;48.138;21.002;2023-08-08T13:14:13;99359.19;;;23.21;40.52
76126;BME280;65174;48.138;21.002;2023-08-08T13:17:15;99366.88;;;23.22;42.33
76126;BME280;65174;48.138;21.002;2023-08-08T13:20:17;99365.78;;;23.17;40.23
76126;BME280;65174;48.138;21.002;2023-08-08T13:23:19;99372.13;;;23.08;40.82
76126;BME280;65174;48.138;21.002;2023-08-08T13:26:21;99357.47;;;22.76;39.32
76126;BME280;65174;48.138;21.002;2023-08-08T13:29:23;99365.28;;;22.84;40.12
76126;BME280;65174;48.138;21.002;2023-08-08T13:32:25;99362.22;;;22.95;39.40
76126;BME280;65174;48.138;21.002;2023-08-08T13:35:27;99361.50;;;23.01;37.32
76126;BME280;65174;48.138;21.002;2023-08-08T13:38:29;99364.59;;;23.05;41.18
76126;BME280;65174;48.138;21.002;2023-08-08T13:41:31;99363.88;;;23.11;40.00
76126;BME280;65174;48.138;21.002;2023-08-08T13:44:33;99362.69;;;23.13;39.51
76126;BME280;65174;48.138;21.002;2023-08-08T13:47:35;99369.03;;;23.04;37.92
76126;BME280;65174;48.138;21.002;2023-08-08T13:50:37;99364.31;;;23.00;38.50
76126;BME280;65174;48.138;21.002;2023-08-08T13:53:39;99364.25;;;23.08;39.48
76126;BME280;65174;48.138;21.002;2023-08-08T13:56:41;99367.22;;;23.05;36.78
76126;BME280;65174;48.138;21.002;2023-08-08T14:50:18;99390.38;;;21.80;43.42
76126;BME280;65174;48.138;21.002;2023-08-08T14:53:20;99389.94;;;21.60;42.86
76126;BME280;65174;48.138;21.002;2023-08-08T14:56:22;99390.72;;;21.69;42.34
76126;BME280;65174;48.138;21.002;2023-08-08T14:59:24;99386.00;;;21.56;41.03
76126;BME280;65174;48.138;21.002;2023-08-08T15:02:26;99386.22;;;21.30;44.15
76126;BME280;65174;48.138;21.002;2023-08-08T15:05:29;99389.53;;;20.76;47.61
76126;BME280;65174;48.138;21.002;2023-08-08T15:08:31;99393.75;;;20.29;50.85
76126;BME280;65174;48.138;21.002;2023-08-08T15:11:32;99401.03;;;20.17;51.85
76126;BME280;65174;48.138;21.002;2023-08-08T15:14:34;99400.03;;;20.02;53.42
76126;BME280;65174;48.138;21.002;2023-08-08T15:17:36;99398.19;;;19.87;53.80
76126;BME280;65174;48.138;21.002;2023-08-08T15:20:38;99405.88;;;19.88;54.94
76126;BME280;65174;48.138;21.002;2023-08-08T15:23:40;99409.19;;;19.98;53.65
76126;BME280;65174;48.138;21.002;2023-08-08T15:26:45;99404.28;;;20.03;54.43
76126;BME280;65174;48.138;21.002;2023-08-08T15:29:46;99401.19;;;20.00;53.59
76126;BME280;65174;48.138;21.002;2023-08-08T15:32:48;99400.97;;;19.93;53.09
76126;BME280;65174;48.138;21.002;2023-08-08T15:54:41;99399.94;;;19.44;52.33
76126;BME280;65174;48.138;21.002;2023-08-08T16:13:45;99415.41;;;19.12;55.28
76126;BME280;65174;48.138;21.002;2023-08-08T16:16:47;99417.53;;;19.17;55.75
76126;BME280;65174;48.138;21.002;2023-08-08T16:19:49;99426.88;;;19.37;52.79
76126;BME280;65174;48.138;21.002;2023-08-08T16:22:51;99420.84;;;19.44;52.96
76126;BME280;65174;48.138;21.002;2023-08-08T16:25:53;99417.28;;;19.45;51.20
76126;BME280;65174;48.138;21.002;2023-08-08T16:28:55;99426.13;;;19.52;52.06
76126;BME280;65174;48.138;21.002;2023-08-08T16:31:57;99424.13;;;19.46;51.16
76126;BME280;65174;48.138;21.002;2023-08-08T16:34:59;99425.19;;;19.53;51.21
76126;BME280;65174;48.138;21.002;2023-08-08T16:38:01;99420.53;;;19.39;50.89
76126;BME280;65174;48.138;21.002;2023-08-08T16:41:03;99423.13;;;19.39;50.99
76126;BME280;65174;48.138;21.002;2023-08-08T16:44:05;99424.94;;;19.39;51.42
76126;BME280;65174;48.138;21.002;2023-08-08T16:47:07;99431.88;;;19.30;53.41
76126;BME280;65174;48.138;21.002;2023-08-08T16:50:09;99425.25;;;19.18;54.75
76126;BME280;65174;48.138;21.002;2023-08-08T16:53:12;99424.59;;;19.16;52.90
76126;BME280;65174;48.138;21.002;2023-08-08T16:56:14;99421.75;;;19.10;52.90
76126;BME280;65174;48.138;21.002;2023-08-08T16:59:16;99419.59;;;19.05;52.88
76126;BME280;65174;48.138;21.002;2023-08-08T17:02:18;99426.03;;;18.93;53.18
76126;BME280;65174;48.138;21.002;2023-08-08T17:05:20;99426.53;;;18.79;53.79
76126;BME280;65174;48.138;21.002;2023-08-08T17:08:22;99429.75;;;18.73;54.89
76126;BME280;65174;48.138;21.002;2023-08-08T17:11:24;99423.19;;;18.69;54.39
76126;BME280;65174;48.138;21.002;2023-08-08T17:14:30;99425.81;;;18.69;55.59
76126;BME280;65174;48.138;21.002;2023-08-08T17:17:32;99424.47;;;18.65;55.85
76126;BME280;65174;48.138;21.002;2023-08-08T17:20:34;99426.56;;;18.61;55.84
76126;BME280;65174;48.138;21.002;2023-08-08T17:23:36;99435.59;;;18.49;56.35
76126;BME280;65174;48.138;21.002;2023-08-08T17:26:38;99432.44;;;18.46;57.21
76126;BME280;65174;48.138;21.002;2023-08-08T17:29:40;99436.41;;;18.50;56.83
76126;BME280;65174;48.138;21.002;2023-08-08T17:32:42;99436.59;;;18.39;57.42